Time;durP1;ratioP1;P1;durP2;ratioP2;P2;SDS_P1;SDS_P2;PMS_P1;PMS_P2;Temp;Humidity;BMP_temperature;BMP_pressure;BME280_temperature;BME280_humidity;BME280_pressure;Samples;Min_cycle;Max_cycle;Signal;HPM_P1;HPM_P2
2023/05/09 00:00:28;;;;;;;5.10;3.20;;;;;;;16.39;51.81;101307.11;107883;1288;24339;-66
2023/05/09 00:02:53;;;;;;;4.60;2.40;;;;;;;16.35;51.91;101309.84;108209;1288;21991;-60
2023/05/09 00:05:20;;;;;;;6.00;2.60;;;;;;;16.32;51.81;101310.27;108192;1288;21992;-65
2023/05/09 00:07:47;;;;;;;5.30;2.60;;;;;;;16.29;51.76;101313.37;107988;1289;23628;-60
2023/05/09 00:10:12;;;;;;;9.80;3.70;;;;;;;16.27;51.98;101312.70;108129;1288;22001;-64
2023/05/09 00:12:39;;;;;;;7.30;3.70;;;;;;;16.24;52.10;101312.38;107992;1288;21998;-66
2023/05/09 00:15:07;;;;;;;7.10;3.30;;;;;;;16.22;51.95;101308.91;108147;1289;22025;-66
2023/05/09 00:17:35;;;;;;;7.50;3.10;;;;;;;16.18;51.96;101310.38;108057;1288;23711;-65
2023/05/09 00:20:04;;;;;;;5.10;2.40;;;;;;;16.14;51.81;101316.86;108093;1289;21959;-60
2023/05/09 00:22:29;;;;;;;4.40;2.40;;;;;;;16.11;51.89;101315.49;108046;1289;22005;-60
2023/05/09 00:24:55;;;;;;;5.00;2.80;;;;;;;16.08;51.72;101311.49;108136;1288;22002;-67
2023/05/09 00:27:21;;;;;;;5.80;2.80;;;;;;;16.06;51.68;101310.64;108080;1289;21992;-61
2023/05/09 00:29:46;;;;;;;6.60;2.70;;;;;;;16.07;51.67;101306.73;108116;1288;21996;-60
2023/05/09 00:32:12;;;;;;;5.30;2.70;;;;;;;16.08;51.56;101306.73;108184;1288;21997;-60
2023/05/09 00:34:38;;;;;;;5.60;2.50;;;;;;;16.07;51.38;101307.61;108143;1288;21991;-60
2023/05/09 00:37:03;;;;;;;4.20;2.50;;;;;;;16.08;51.39;101310.23;108092;1288;22005;-65
2023/05/09 00:39:29;;;;;;;5.20;2.40;;;;;;;16.07;51.15;101310.80;108088;1287;21986;-65
2023/05/09 00:41:55;;;;;;;9.90;3.10;;;;;;;16.06;51.08;101311.00;108128;1288;22166;-65
2023/05/09 00:44:21;;;;;;;3.80;2.40;;;;;;;16.03;50.82;101314.23;108088;1286;21999;-67
2023/05/09 00:46:47;;;;;;;8.00;2.50;;;;;;;16.00;50.84;101313.41;108058;1287;22731;-65
2023/05/09 00:49:13;;;;;;;7.00;3.10;;;;;;;15.96;50.76;101318.98;107844;1288;22047;-61
2023/05/09 00:51:41;;;;;;;8.20;2.70;;;;;;;15.90;50.78;101318.38;107841;1288;22084;-66
2023/05/09 00:54:08;;;;;;;4.50;2.80;;;;;;;15.83;50.79;101322.57;108172;1288;22009;-60
2023/05/09 00:56:33;;;;;;;4.00;2.80;;;;;;;15.82;50.90;101327.01;108049;1288;21996;-60
2023/05/09 00:58:59;;;;;;;6.90;2.50;;;;;;;15.81;50.88;101328.08;108021;1288;21994;-61
2023/05/09 01:01:25;;;;;;;5.20;2.60;;;;;;;15.82;51.07;101330.89;108056;1288;22008;-67
2023/05/09 01:03:51;;;;;;;5.60;2.70;;;;;;;15.84;51.13;101335.82;108098;1288;22706;-65
2023/05/09 01:06:31;;;;;;;5.10;2.90;;;;;;;15.85;51.08;101337.20;108058;1288;22952;-61
2023/05/09 01:08:58;;;;;;;5.10;2.70;;;;;;;15.84;51.18;101339.36;107994;1288;22605;-66
2023/05/09 01:11:35;;;;;;;6.50;3.00;;;;;;;15.80;51.17;101341.91;107979;1288;21997;-66
2023/05/09 01:14:25;;;;;;;5.20;3.00;;;;;;;15.79;51.34;101344.77;107959;1288;24325;-66
2023/05/09 01:16:53;;;;;;;5.80;2.50;;;;;;;15.78;51.57;101343.73;107998;1288;21964;-61
2023/05/09 01:19:50;;;;;;;5.60;2.60;;;;;;;15.78;51.62;101344.43;108132;1288;21992;-60
2023/05/09 01:22:16;;;;;;;3.70;2.70;;;;;;;15.79;51.56;101347.94;108103;1288;22071;-66
2023/05/09 01:24:54;;;;;;;5.00;2.40;;;;;;;15.81;51.74;101348.63;107955;1288;22003;-66
2023/05/09 01:27:43;;;;;;;5.40;3.10;;;;;;;15.80;51.56;101348.81;107511;1288;1002182;-66
2023/05/09 01:30:09;;;;;;;5.00;2.70;;;;;;;15.82;51.69;101349.84;108075;1289;21987;-60
2023/05/09 01:32:35;;;;;;;6.70;2.80;;;;;;;15.85;51.59;101352.27;108009;1289;22000;-60
2023/05/09 01:35:01;;;;;;;4.20;2.40;;;;;;;15.88;51.65;101350.27;107806;1289;21998;-61
2023/05/09 01:37:31;;;;;;;7.00;3.00;;;;;;;15.90;51.76;101349.72;108053;1288;22014;-62
2023/05/09 01:40:00;;;;;;;5.60;2.60;;;;;;;15.90;51.66;101352.90;108079;1288;21995;-66
2023/05/09 01:42:28;;;;;;;6.40;3.00;;;;;;;15.91;51.66;101356.41;108029;1288;23715;-61
2023/05/09 01:44:54;;;;;;;8.90;3.40;;;;;;;15.91;51.67;101359.27;107977;1288;21997;-61
2023/05/09 01:47:19;;;;;;;3.80;2.70;;;;;;;15.90;51.70;101357.51;107787;1288;22003;-62
2023/05/09 01:49:45;;;;;;;6.40;3.20;;;;;;;15.88;51.87;101360.38;107849;1288;21996;-66
2023/05/09 01:52:13;;;;;;;6.40;3.00;;;;;;;15.86;51.79;101360.75;107824;1289;21980;-67
2023/05/09 01:54:39;;;;;;;5.20;2.60;;;;;;;15.85;51.88;101360.21;108217;1288;21991;-65
2023/05/09 01:57:05;;;;;;;5.30;2.90;;;;;;;15.82;51.94;101358.33;107831;1288;21993;-61
2023/05/09 01:59:31;;;;;;;5.00;3.60;;;;;;;15.81;51.91;101359.23;107836;1288;21993;-61
2023/05/09 02:01:56;;;;;;;5.10;2.90;;;;;;;15.80;52.01;101356.95;107822;1289;23666;-60
2023/05/09 02:04:22;;;;;;;9.80;3.20;;;;;;;15.78;51.89;101359.82;107845;1289;21986;-65
2023/05/09 02:06:50;;;;;;;4.00;2.30;;;;;;;15.75;51.75;101355.09;108055;1289;21992;-61
2023/05/09 02:09:17;;;;;;;4.50;2.70;;;;;;;15.72;51.84;101355.13;108195;1288;22011;-67
2023/05/09 02:11:43;;;;;;;4.60;3.10;;;;;;;15.69;51.63;101354.85;108127;1289;21986;-61
2023/05/09 02:14:08;;;;;;;10.90;3.70;;;;;;;15.65;51.63;101353.50;108113;1288;21990;-61
2023/05/09 02:16:38;;;;;;;6.40;3.00;;;;;;;15.63;51.62;101352.85;107919;1289;21993;-61
2023/05/09 02:19:04;;;;;;;7.10;3.20;;;;;;;15.60;51.74;101351.63;108166;1288;22008;-67
2023/05/09 02:21:30;;;;;;;5.50;3.70;;;;;;;15.57;51.65;101351.52;107889;1289;24329;-67
2023/05/09 02:23:56;;;;;;;5.20;3.10;;;;;;;15.51;51.48;101350.74;108016;1289;21990;-61
2023/05/09 02:26:22;;;;;;;3.60;2.50;;;;;;;15.46;51.50;101357.02;108081;1289;21989;-61
2023/05/09 02:28:48;;;;;;;5.00;2.60;;;;;;;15.41;51.59;101356.23;107791;1289;21989;-67
2023/05/09 02:31:14;;;;;;;6.20;2.60;;;;;;;15.37;51.72;101357.70;107064;1289;1002426;-60
2023/05/09 02:33:39;;;;;;;4.30;2.90;;;;;;;15.29;51.88;101358.17;107790;1288;21989;-62
2023/05/09 02:36:07;;;;;;;5.20;3.10;;;;;;;15.23;51.85;101359.35;107974;1289;21995;-61
2023/05/09 02:38:34;;;;;;;6.50;3.20;;;;;;;15.18;51.99;101358.71;108157;1288;22769;-66
2023/05/09 02:41:00;;;;;;;5.50;3.20;;;;;;;15.13;52.00;101356.83;107919;1289;23742;-60
2023/05/09 02:43:29;;;;;;;4.70;2.60;;;;;;;15.10;52.05;101355.64;108133;1289;21989;-60
2023/05/09 02:45:54;;;;;;;4.40;2.60;;;;;;;15.09;51.94;101356.02;108053;1289;21977;-60
2023/05/09 02:48:20;;;;;;;6.00;2.70;;;;;;;15.08;51.92;101356.56;108069;1283;22010;-60
2023/05/09 02:50:46;;;;;;;3.90;2.70;;;;;;;15.08;51.87;101353.74;108156;1288;22374;-61
2023/05/09 02:53:11;;;;;;;4.70;2.90;;;;;;;15.05;51.89;101357.31;108136;1288;22021;-60
2023/05/09 02:55:37;;;;;;;5.20;2.80;;;;;;;15.04;52.02;101359.10;108122;1288;22017;-60
2023/05/09 02:58:03;;;;;;;3.90;2.80;;;;;;;15.02;51.95;101359.83;108083;1288;21979;-60
2023/05/09 03:00:28;;;;;;;6.70;2.60;;;;;;;15.02;51.91;101358.77;108071;1289;21998;-67
2023/05/09 03:02:54;;;;;;;8.20;3.20;;;;;;;15.01;51.87;101358.44;108071;1289;21992;-60
2023/05/09 03:05:20;;;;;;;6.60;2.50;;;;;;;15.01;51.87;101359.31;108117;1289;21989;-61
2023/05/09 03:07:46;;;;;;;6.20;2.70;;;;;;;15.00;51.91;101360.05;108081;1288;21994;-60
2023/05/09 03:10:12;;;;;;;7.60;3.00;;;;;;;14.99;52.03;101363.06;108088;1288;22005;-68
2023/05/09 03:12:39;;;;;;;8.80;2.90;;;;;;;14.99;52.08;101363.23;108011;1288;22057;-60
2023/05/09 03:15:06;;;;;;;5.50;2.90;;;;;;;15.01;52.18;101366.38;107975;1288;22001;-60
2023/05/09 03:17:31;;;;;;;7.40;3.20;;;;;;;15.04;52.32;101368.27;107966;1288;22025;-65
2023/05/09 03:19:57;;;;;;;3.70;2.50;;;;;;;15.04;52.53;101367.92;108002;1288;21993;-60
2023/05/09 03:22:23;;;;;;;5.30;2.50;;;;;;;15.09;52.82;101371.23;108012;1286;21992;-66
2023/05/09 03:24:49;;;;;;;4.30;2.50;;;;;;;15.15;52.90;101373.61;107763;1288;24328;-66
2023/05/09 03:27:15;;;;;;;9.30;3.10;;;;;;;15.21;53.10;101371.74;108077;1288;21990;-66
2023/05/09 03:29:40;;;;;;;7.40;3.10;;;;;;;15.28;53.73;101368.63;108057;1284;21995;-64
2023/05/09 03:32:06;;;;;;;6.90;2.80;;;;;;;15.31;53.82;101372.63;107993;1288;22108;-60
2023/05/09 03:34:32;;;;;;;7.30;3.00;;;;;;;15.36;53.76;101375.21;108027;1288;21992;-64
2023/05/09 03:36:58;;;;;;;11.00;3.10;;;;;;;15.43;53.85;101376.70;107976;1288;21997;-65
2023/05/09 03:39:23;;;;;;;5.90;2.70;;;;;;;15.51;53.93;101377.79;107978;1288;21994;-60
2023/05/09 03:41:49;;;;;;;7.10;2.20;;;;;;;15.59;53.99;101379.26;107952;1288;21994;-61
2023/05/09 03:44:15;;;;;;;8.00;3.00;;;;;;;15.66;54.14;101379.66;108035;1288;22003;-60
2023/05/09 03:46:40;;;;;;;13.20;3.10;;;;;;;15.73;54.28;101379.36;107980;1288;21987;-62
2023/05/09 03:49:06;;;;;;;7.50;3.10;;;;;;;15.79;54.23;101379.27;107964;1288;22030;-64
2023/05/09 03:51:31;;;;;;;5.70;3.20;;;;;;;15.84;54.25;101384.49;107962;1288;22024;-64
2023/05/09 03:53:57;;;;;;;4.50;2.40;;;;;;;15.87;54.33;101387.13;107981;1288;23053;-60
2023/05/09 03:56:23;;;;;;;5.00;2.50;;;;;;;15.90;54.14;101385.47;107981;1284;21989;-61
2023/05/09 03:58:48;;;;;;;5.80;2.40;;;;;;;15.92;53.95;101384.90;107981;1288;21989;-60
2023/05/09 04:01:14;;;;;;;4.40;2.30;;;;;;;15.94;53.89;101387.69;107975;1288;22000;-60
2023/05/09 04:03:40;;;;;;;4.80;2.80;;;;;;;15.96;53.90;101388.36;108004;1288;21997;-64
2023/05/09 04:06:06;;;;;;;4.20;2.50;;;;;;;15.95;53.83;101392.45;108025;1288;22083;-63
2023/05/09 04:08:32;;;;;;;5.30;2.80;;;;;;;15.92;53.72;101395.88;108113;1287;22001;-64
2023/05/09 04:10:58;;;;;;;4.40;2.80;;;;;;;15.87;53.79;101393.83;107817;1288;21995;-61
2023/05/09 04:13:23;;;;;;;6.60;2.90;;;;;;;15.82;53.71;101393.73;107989;1288;22178;-63
2023/05/09 04:15:50;;;;;;;4.80;2.50;;;;;;;15.77;53.63;101395.39;107994;1288;23718;-60
2023/05/09 04:18:16;;;;;;;5.20;2.80;;;;;;;15.73;53.78;101393.34;108102;1288;22007;-64
2023/05/09 04:20:41;;;;;;;8.40;2.90;;;;;;;15.68;53.99;101395.55;107728;1288;21990;-63
2023/05/09 04:23:07;;;;;;;8.50;3.40;;;;;;;15.64;54.27;101394.39;108010;1288;21985;-60
2023/05/09 04:25:33;;;;;;;7.60;3.30;;;;;;;15.59;53.85;101394.83;108015;1288;21996;-60
2023/05/09 04:27:59;;;;;;;4.10;2.70;;;;;;;15.56;54.09;101393.11;107738;1288;21990;-62
2023/05/09 04:30:27;;;;;;;5.40;2.70;;;;;;;15.52;54.18;101392.45;107987;1285;22639;-62
2023/05/09 04:32:54;;;;;;;6.50;2.70;;;;;;;15.52;54.15;101393.00;108028;1288;21998;-61
2023/05/09 04:35:20;;;;;;;4.70;2.60;;;;;;;15.55;54.37;101394.17;107997;1288;23654;-61
2023/05/09 04:37:46;;;;;;;4.00;2.20;;;;;;;15.60;54.35;101393.92;108056;1284;22023;-62
2023/05/09 04:40:12;;;;;;;4.30;2.50;;;;;;;15.63;54.50;101391.77;107969;1288;22001;-62
2023/05/09 04:42:39;;;;;;;3.80;2.90;;;;;;;15.64;54.41;101387.67;107853;1289;21999;-60
2023/05/09 04:45:06;;;;;;;4.30;3.20;;;;;;;15.67;54.71;101386.73;108055;1288;22004;-60
2023/05/09 04:47:32;;;;;;;3.80;2.60;;;;;;;15.71;54.85;101388.77;108006;1288;21998;-61
2023/05/09 04:49:58;;;;;;;6.40;2.70;;;;;;;15.75;54.74;101386.93;108030;1286;22210;-60
2023/05/09 04:52:23;;;;;;;3.80;2.40;;;;;;;15.83;55.39;101386.45;108010;1288;21997;-60
2023/05/09 04:54:49;;;;;;;5.60;2.70;;;;;;;15.91;55.48;101386.34;108004;1288;22001;-61
2023/05/09 04:57:15;;;;;;;4.90;2.40;;;;;;;15.99;56.10;101384.60;108011;1288;22462;-60
2023/05/09 04:59:41;;;;;;;6.80;3.20;;;;;;;16.04;55.89;101387.33;108013;1288;21997;-61
2023/05/09 05:02:07;;;;;;;4.60;3.00;;;;;;;16.10;55.97;101390.23;107770;1288;21999;-62
2023/05/09 05:04:33;;;;;;;4.70;3.00;;;;;;;16.16;56.62;101389.05;107978;1288;23122;-62
2023/05/09 05:06:58;;;;;;;4.80;2.80;;;;;;;16.23;56.36;101392.11;107995;1288;21994;-62
2023/05/09 05:09:24;;;;;;;6.10;3.00;;;;;;;16.30;56.38;101394.45;108079;1288;22270;-61
2023/05/09 05:11:50;;;;;;;4.00;2.50;;;;;;;16.38;56.31;101391.98;108037;1288;22017;-61
2023/05/09 05:14:16;;;;;;;4.50;2.60;;;;;;;16.45;56.56;101395.75;108087;1288;22026;-60
2023/05/09 05:16:41;;;;;;;7.70;3.20;;;;;;;16.54;57.06;101391.66;107993;1288;21990;-60
2023/05/09 05:19:07;;;;;;;9.50;3.10;;;;;;;16.64;57.15;101388.24;108049;1288;21999;-60
2023/05/09 05:21:33;;;;;;;8.80;2.90;;;;;;;16.76;56.84;101391.55;108068;1288;21990;-62
2023/05/09 05:23:58;;;;;;;6.40;3.40;;;;;;;16.89;57.32;101392.50;108200;1287;21992;-60
2023/05/09 05:26:24;;;;;;;5.50;3.30;;;;;;;17.01;56.80;101391.91;108021;1288;21996;-60
2023/05/09 05:28:54;;;;;;;9.10;3.00;;;;;;;17.12;56.83;101387.58;108058;1288;22930;-60
2023/05/09 05:31:20;;;;;;;6.80;3.10;;;;;;;17.23;56.98;101389.44;107972;1288;22028;-60
2023/05/09 05:33:46;;;;;;;4.40;2.90;;;;;;;17.34;57.19;101392.73;108049;1288;21998;-60
2023/05/09 05:36:11;;;;;;;7.60;3.00;;;;;;;17.44;57.03;101394.09;108077;1288;22008;-60
2023/05/09 05:38:37;;;;;;;12.40;3.20;;;;;;;17.55;56.82;101398.25;108033;1288;21995;-60
2023/05/09 05:41:03;;;;;;;8.00;3.30;;;;;;;17.67;56.82;101397.23;107996;1288;21991;-60
2023/05/09 05:43:29;;;;;;;4.90;3.60;;;;;;;17.79;57.16;101398.70;108015;1288;21991;-60
2023/05/09 05:45:55;;;;;;;6.00;2.80;;;;;;;17.95;58.58;101399.17;107989;1288;22078;-60
2023/05/09 05:48:20;;;;;;;4.90;3.10;;;;;;;18.18;59.22;101395.19;108066;1284;22002;-60
2023/05/09 05:50:46;;;;;;;7.20;3.20;;;;;;;18.48;61.68;101397.37;107987;1288;22000;-61
2023/05/09 05:53:11;;;;;;;5.90;2.80;;;;;;;18.78;60.19;101397.56;108045;1287;24333;-59
2023/05/09 05:55:37;;;;;;;4.30;2.60;;;;;;;19.00;60.23;101399.23;108016;1288;21994;-60
2023/05/09 05:58:03;;;;;;;5.90;3.20;;;;;;;19.15;59.00;101398.05;108054;1286;21999;-60
2023/05/09 06:00:29;;;;;;;12.90;3.60;;;;;;;19.29;57.93;101397.77;107980;1288;22036;-59
2023/05/09 06:02:55;;;;;;;9.50;4.30;;;;;;;19.39;56.92;101399.75;108028;1288;21998;-59
2023/05/09 06:05:20;;;;;;;9.90;2.90;;;;;;;19.54;57.18;101397.46;108006;1288;21988;-60
2023/05/09 06:07:46;;;;;;;4.60;2.40;;;;;;;19.70;57.59;101397.64;108031;1288;22019;-60
2023/05/09 06:10:14;;;;;;;5.30;2.70;;;;;;;19.91;56.94;101394.11;107994;1288;21997;-59
2023/05/09 06:12:40;;;;;;;6.90;3.40;;;;;;;20.14;56.64;101393.30;108012;1288;21993;-60
2023/05/09 06:15:06;;;;;;;9.30;3.70;;;;;;;20.45;57.22;101390.55;108011;1288;22000;-59
2023/05/09 06:17:33;;;;;;;8.60;3.50;;;;;;;20.78;56.21;101386.48;107994;1288;22001;-60
2023/05/09 06:19:58;;;;;;;9.20;4.30;;;;;;;21.05;55.28;101386.84;108089;1288;22076;-59
2023/05/09 06:22:24;;;;;;;7.70;3.20;;;;;;;21.31;54.51;101386.86;107996;1288;22000;-61
2023/05/09 06:24:50;;;;;;;6.10;3.50;;;;;;;21.50;52.63;101388.21;108033;1288;22083;-59
2023/05/09 06:27:15;;;;;;;11.50;3.70;;;;;;;21.60;52.10;101387.84;108023;1288;22022;-60
2023/05/09 06:29:41;;;;;;;10.90;4.80;;;;;;;21.73;52.66;101391.77;107742;1288;21994;-60
2023/05/09 06:32:06;;;;;;;9.00;4.50;;;;;;;21.87;52.38;101390.08;108006;1288;21996;-61
2023/05/09 06:34:33;;;;;;;9.80;5.10;;;;;;;22.01;52.27;101388.23;108114;1288;22000;-60
2023/05/09 06:36:59;;;;;;;8.00;3.00;;;;;;;22.19;51.25;101388.70;108056;1288;21984;-61
2023/05/09 06:39:25;;;;;;;6.80;3.70;;;;;;;22.17;49.40;101387.52;108084;1288;22174;-60
2023/05/09 06:41:50;;;;;;;7.70;3.40;;;;;;;22.13;49.57;101389.12;108011;1288;22048;-61
2023/05/09 06:44:16;;;;;;;5.90;2.80;;;;;;;22.08;49.24;101388.44;108054;1288;21994;-60
2023/05/09 06:46:42;;;;;;;5.40;2.80;;;;;;;22.04;48.95;101386.69;108029;1288;21983;-61
2023/05/09 06:49:07;;;;;;;4.40;2.90;;;;;;;21.96;48.32;101382.70;108112;1288;21987;-60
2023/05/09 06:51:33;;;;;;;4.40;2.70;;;;;;;21.85;47.35;101378.55;108074;1288;21997;-61
2023/05/09 06:53:58;;;;;;;3.90;2.60;;;;;;;21.75;46.91;101377.21;108091;1283;21996;-61
2023/05/09 06:56:25;;;;;;;4.40;3.00;;;;;;;21.69;46.73;101375.83;108028;1288;21981;-62
2023/05/09 06:58:50;;;;;;;8.20;3.20;;;;;;;21.69;46.78;101376.40;107805;1288;22004;-60
2023/05/09 07:01:19;;;;;;;5.50;2.90;;;;;;;21.64;45.66;101376.95;107766;1288;22000;-62
2023/05/09 07:03:46;;;;;;;7.20;2.90;;;;;;;21.45;44.47;101377.38;107999;1288;23612;-60
2023/05/09 07:06:12;;;;;;;6.30;2.50;;;;;;;21.23;45.15;101379.16;108064;1286;22003;-61
2023/05/09 07:08:38;;;;;;;5.80;2.70;;;;;;;21.17;45.50;101379.23;108092;1288;21990;-60
2023/05/09 07:11:04;;;;;;;5.50;2.70;;;;;;;21.16;45.16;101375.88;108030;1288;21990;-60
2023/05/09 07:13:30;;;;;;;4.20;2.50;;;;;;;21.28;45.71;101377.72;108104;1286;21987;-59
2023/05/09 07:15:56;;;;;;;6.10;2.60;;;;;;;21.49;45.82;101377.54;108037;1288;21987;-59
2023/05/09 07:18:22;;;;;;;6.00;2.50;;;;;;;21.84;45.55;101375.90;107785;1288;21986;-60
2023/05/09 07:20:47;;;;;;;4.50;2.70;;;;;;;22.28;45.92;101372.58;108042;1288;23620;-59
2023/05/09 07:23:13;;;;;;;8.70;3.10;;;;;;;22.69;46.11;101366.59;107727;1288;25045;-59
2023/05/09 07:25:39;;;;;;;5.50;3.00;;;;;;;23.12;46.60;101366.67;108014;1288;21992;-61
2023/05/09 07:28:04;;;;;;;3.80;2.50;;;;;;;23.59;45.99;101366.64;108005;1288;21994;-59
2023/05/09 07:30:30;;;;;;;8.70;2.80;;;;;;;23.96;44.37;101364.95;108003;1288;21987;-59
2023/05/09 07:32:56;;;;;;;6.10;2.60;;;;;;;24.20;43.92;101361.50;108016;1288;21997;-59
2023/05/09 07:35:22;;;;;;;6.20;2.70;;;;;;;24.42;43.56;101367.49;107990;1288;21995;-60
2023/05/09 07:37:47;;;;;;;5.50;3.10;;;;;;;24.63;43.64;101365.81;108026;1288;21984;-59
2023/05/09 07:40:13;;;;;;;5.00;2.70;;;;;;;24.86;43.38;101362.02;108070;1288;21988;-61
2023/05/09 07:42:39;;;;;;;5.50;3.00;;;;;;;25.05;42.76;101361.32;108073;1288;21986;-62
2023/05/09 07:45:06;;;;;;;5.50;2.90;;;;;;;25.16;42.26;101359.77;108007;1288;22024;-58
2023/05/09 07:47:32;;;;;;;5.90;2.60;;;;;;;25.21;41.72;101358.38;108051;1287;21997;-60
2023/05/09 07:49:58;;;;;;;5.60;2.40;;;;;;;25.32;41.38;101360.66;107973;1288;21990;-58
2023/05/09 07:52:23;;;;;;;4.00;2.40;;;;;;;25.38;40.05;101359.03;108119;1284;21989;-60
2023/05/09 07:54:49;;;;;;;4.90;2.90;;;;;;;25.34;40.14;101357.11;108005;1288;21999;-58
2023/05/09 07:57:15;;;;;;;4.30;2.40;;;;;;;25.42;40.42;101360.08;108017;1288;21989;-60
2023/05/09 07:59:41;;;;;;;5.10;2.70;;;;;;;25.60;39.99;101358.48;108133;1288;21995;-62
2023/05/09 08:02:07;;;;;;;5.30;2.80;;;;;;;25.75;39.60;101353.48;108077;1287;21999;-61
2023/05/09 08:04:36;;;;;;;8.10;2.80;;;;;;;25.93;39.77;101349.31;107980;1288;22000;-59
2023/05/09 08:07:03;;;;;;;10.10;2.70;;;;;;;26.24;39.48;101349.17;107973;1288;22217;-61
2023/05/09 08:09:29;;;;;;;5.80;2.50;;;;;;;26.56;39.33;101347.02;108006;1288;21989;-60
2023/05/09 08:11:54;;;;;;;5.00;2.60;;;;;;;26.81;38.95;101350.28;107978;1288;21992;-61
2023/05/09 08:14:20;;;;;;;5.60;2.20;;;;;;;27.01;38.66;101346.49;107954;1288;22006;-61
2023/05/09 08:16:46;;;;;;;5.50;2.40;;;;;;;27.19;38.62;101341.69;108083;1284;21995;-61
2023/05/09 08:19:12;;;;;;;5.90;1.80;;;;;;;27.47;37.88;101341.61;108036;1288;23055;-60
2023/05/09 08:21:38;;;;;;;4.70;1.90;;;;;;;27.78;37.24;101338.93;107983;1288;22163;-61
2023/05/09 08:24:06;;;;;;;3.80;1.70;;;;;;;27.95;36.47;101333.98;107976;1288;23438;-61
2023/05/09 08:26:34;;;;;;;7.70;1.90;;;;;;;28.05;36.43;101335.80;107959;1287;23750;-60
2023/05/09 08:29:00;;;;;;;4.60;1.60;;;;;;;28.14;36.03;101332.83;108121;1288;21992;-60
2023/05/09 08:31:26;;;;;;;2.60;1.30;;;;;;;28.30;36.02;101337.08;108082;1288;22102;-59
2023/05/09 08:33:52;;;;;;;3.30;1.30;;;;;;;28.50;36.07;101328.79;108055;1289;22202;-60
2023/05/09 08:36:17;;;;;;;3.50;1.20;;;;;;;28.73;35.73;101330.00;108005;1284;21988;-60
2023/05/09 08:38:43;;;;;;;1.80;1.10;;;;;;;28.92;35.06;101328.77;108012;1289;21983;-60
2023/05/09 08:41:09;;;;;;;1.80;1.00;;;;;;;29.11;34.66;101327.23;108002;1283;21983;-62
2023/05/09 08:43:35;;;;;;;3.30;1.20;;;;;;;29.33;34.65;101323.02;108044;1289;21980;-60
2023/05/09 08:46:09;;;;;;;2.20;0.90;;;;;;;29.65;34.34;101322.91;107819;1289;21986;-61
2023/05/09 08:48:36;;;;;;;2.80;1.20;;;;;;;29.80;33.64;101322.45;108027;1289;21992;-60
2023/05/09 08:51:03;;;;;;;3.70;1.20;;;;;;;29.82;33.41;101322.99;108045;1289;24146;-60
2023/05/09 08:53:29;;;;;;;4.40;1.40;;;;;;;29.73;33.52;101324.13;107813;1288;282817;-60
2023/05/09 08:55:57;;;;;;;2.70;1.20;;;;;;;29.57;32.83;101322.99;108133;1288;21988;-61
2023/05/09 08:58:22;;;;;;;4.50;1.50;;;;;;;29.35;32.06;101321.96;108144;1288;21988;-61
2023/05/09 09:00:49;;;;;;;4.40;1.50;;;;;;;29.16;31.95;101317.40;108073;1288;24368;-60
2023/05/09 09:03:15;;;;;;;2.90;1.10;;;;;;;29.09;32.85;101314.54;108111;1288;22000;-61
2023/05/09 09:05:41;;;;;;;2.30;0.90;;;;;;;29.05;30.92;101312.70;107797;1286;22064;-61
2023/05/09 09:08:07;;;;;;;3.60;1.40;;;;;;;28.90;31.09;101310.56;108108;1285;21978;-61
2023/05/09 09:10:35;;;;;;;5.10;1.20;;;;;;;28.79;31.50;101309.89;108068;1286;21993;-61
2023/05/09 09:13:03;;;;;;;4.90;1.20;;;;;;;28.99;32.50;101308.39;108236;1286;21993;-59
2023/05/09 09:15:34;;;;;;;6.50;1.40;;;;;;;29.31;32.13;101310.66;108059;1288;21989;-59
2023/05/09 09:18:10;;;;;;;3.30;1.40;;;;;;;29.45;30.32;101307.33;108044;1288;21997;-61
2023/05/09 09:20:40;;;;;;;3.00;1.40;;;;;;;29.50;30.27;101306.35;107792;1288;21986;-60
2023/05/09 09:23:09;;;;;;;4.80;1.60;;;;;;;29.45;29.63;101304.96;107945;1288;21992;-60
2023/05/09 09:25:35;;;;;;;7.70;1.40;;;;;;;29.13;30.06;101301.56;107893;1288;23068;-61
2023/05/09 09:28:02;;;;;;;2.00;0.90;;;;;;;29.08;30.62;101303.79;108042;1288;21989;-61
2023/05/09 09:30:28;;;;;;;3.60;1.20;;;;;;;29.40;30.52;101302.02;107973;1288;21999;-60
2023/05/09 09:32:54;;;;;;;2.60;1.30;;;;;;;29.76;30.28;101302.00;107964;1288;21998;-59
2023/05/09 09:35:19;;;;;;;2.50;1.00;;;;;;;29.95;29.72;101301.18;107913;1288;21991;-60
2023/05/09 09:37:45;;;;;;;4.80;1.10;;;;;;;30.06;29.85;101298.52;107961;1288;21990;-60
2023/05/09 09:40:11;;;;;;;32.20;4.70;;;;;;;30.10;29.45;101296.95;108003;1289;22039;-59
2023/05/09 09:42:46;;;;;;;7.10;1.50;;;;;;;30.01;29.34;101295.89;108044;1288;23737;-60
2023/05/09 09:45:17;;;;;;;3.30;1.30;;;;;;;30.08;29.32;101297.84;108097;1288;21986;-60
2023/05/09 09:47:44;;;;;;;5.40;1.00;;;;;;;30.11;29.39;101299.38;107887;1288;21991;-60
2023/05/09 09:50:14;;;;;;;3.60;1.20;;;;;;;30.05;29.34;101300.95;108175;1288;22023;-60
2023/05/09 09:52:54;;;;;;;2.20;1.40;;;;;;;29.94;28.92;101297.31;108103;1288;23622;-60
2023/05/09 09:55:21;;;;;;;3.20;1.30;;;;;;;29.84;28.25;101301.34;108090;1288;21997;-60
2023/05/09 09:57:47;;;;;;;5.50;1.30;;;;;;;29.71;28.86;101301.45;108042;1288;21993;-60
2023/05/09 10:00:14;;;;;;;8.60;1.50;;;;;;;29.81;28.89;101300.67;107985;1288;21995;-60
2023/05/09 10:02:48;;;;;;;2.60;1.40;;;;;;;29.99;28.92;101301.09;108048;1289;22003;-60
2023/05/09 10:05:20;;;;;;;4.00;1.30;;;;;;;30.12;28.79;101297.38;107991;1288;21981;-59
2023/05/09 10:07:50;;;;;;;4.80;1.30;;;;;;;30.18;28.85;101295.98;108130;1288;21981;-60
2023/05/09 10:10:16;;;;;;;;;;;;;;;30.33;28.80;101292.18;108051;1286;21976;-59
2023/05/09 10:12:42;;;;;;;4.10;1.70;;;;;;;30.54;28.66;101290.35;108035;1284;21957;-60
2023/05/09 10:15:08;;;;;;;1.80;1.10;;;;;;;30.72;28.38;101297.20;107675;1288;21992;-60
2023/05/09 10:17:34;;;;;;;2.80;1.30;;;;;;;30.85;28.07;101296.33;108018;1288;21996;-61
2023/05/09 10:20:03;;;;;;;3.60;1.00;;;;;;;31.02;28.13;101288.86;107828;1287;23659;-62
2023/05/09 10:22:29;;;;;;;5.10;1.30;;;;;;;31.24;27.91;101283.96;108036;1288;21987;-60
2023/05/09 10:25:05;;;;;;;2.70;1.30;;;;;;;31.46;27.85;101283.21;107934;1288;21989;-60
2023/05/09 10:27:34;;;;;;;6.60;1.70;;;;;;;31.71;28.16;101277.98;108098;1288;21989;-60
2023/05/09 10:30:06;;;;;;;7.20;1.70;;;;;;;32.00;28.24;101272.14;108102;1288;21982;-64
2023/05/09 10:32:38;;;;;;;15.80;2.60;;;;;;;32.17;26.65;101277.36;107908;1288;21987;-61
2023/05/09 10:35:05;;;;;;;3.10;1.50;;;;;;;31.91;26.53;101277.98;108047;1284;22048;-61
2023/05/09 10:37:31;;;;;;;4.90;1.30;;;;;;;31.40;26.32;101280.23;108097;1288;21989;-62
2023/05/09 10:39:58;;;;;;;6.00;1.40;;;;;;;30.92;26.79;101281.94;107797;1289;23712;-61
2023/05/09 10:42:24;;;;;;;7.30;1.60;;;;;;;30.74;26.88;101284.35;108054;1287;21983;-62
2023/05/09 10:44:52;;;;;;;3.10;1.20;;;;;;;30.71;26.90;101283.17;107774;1288;21984;-61
2023/05/09 10:47:18;;;;;;;3.20;1.50;;;;;;;30.62;26.60;101279.00;108054;1288;22028;-61
2023/05/09 10:49:44;;;;;;;7.10;1.30;;;;;;;30.46;26.35;101279.75;107960;1288;22768;-61
2023/05/09 10:52:10;;;;;;;4.30;1.20;;;;;;;30.14;26.37;101278.52;107779;1288;21989;-61
2023/05/09 10:54:36;;;;;;;4.00;1.30;;;;;;;29.67;25.76;101281.67;108063;1288;21992;-61
2023/05/09 10:57:02;;;;;;;2.10;1.30;;;;;;;29.02;25.60;101277.09;107980;1288;21989;-62
2023/05/09 10:59:39;;;;;;;2.30;1.20;;;;;;;28.57;25.93;101275.70;108022;1288;22030;-61
2023/05/09 11:02:05;;;;;;;2.30;1.20;;;;;;;28.51;26.92;101274.55;108077;1288;21987;-61
2023/05/09 11:04:31;;;;;;;2.90;1.10;;;;;;;28.83;27.11;101272.05;108045;1287;22028;-61
2023/05/09 11:06:58;;;;;;;1.70;1.40;;;;;;;29.35;27.44;101270.05;108016;1288;21990;-61
2023/05/09 11:09:27;;;;;;;4.80;1.10;;;;;;;29.93;27.30;101270.75;108041;1288;22048;-62
2023/05/09 11:11:57;;;;;;;3.00;1.00;;;;;;;30.46;27.21;101267.09;108031;1288;21992;-61
2023/05/09 11:14:32;;;;;;;3.10;1.50;;;;;;;30.94;26.95;101267.46;108055;1284;21989;-61